createdAt,value
2019-05-03T00:02:43.036Z,10.92
2019-05-03T00:07:45.982Z,11.05
2019-05-03T00:12:47.912Z,10.54
2019-05-03T00:17:49.985Z,10.65
2019-05-03T00:22:52.418Z,10.66
2019-05-03T00:27:55.179Z,10.89
2019-05-03T00:32:57.095Z,10.82
2019-05-03T00:38:02.098Z,11.01
2019-05-03T00:43:04.232Z,11.20
2019-05-03T00:48:07.578Z,11.00
2019-05-03T00:53:11.589Z,11.00
2019-05-03T00:58:13.482Z,11.23
2019-05-03T01:03:15.456Z,11.13
2019-05-03T01:08:17.439Z,11.08
2019-05-03T01:13:19.372Z,10.45
2019-05-03T01:18:21.956Z,11.03
2019-05-03T01:23:25.957Z,11.09
2019-05-03T01:28:28.140Z,10.92
2019-05-03T01:33:32.006Z,10.98
2019-05-03T01:38:33.899Z,10.75
2019-05-03T01:43:35.829Z,10.54
2019-05-03T01:49:01.564Z,10.54
2019-05-03T01:54:03.656Z,10.42
2019-05-03T01:59:05.601Z,10.31
2019-05-03T02:04:32.218Z,10.48
2019-05-03T02:09:34.212Z,10.11
2019-05-03T02:14:38.432Z,10.39
2019-05-03T02:19:42.168Z,10.14
2019-05-03T02:24:44.209Z,9.88
2019-05-03T02:29:46.168Z,10.07
2019-05-03T02:34:48.274Z,10.05
2019-05-03T02:39:55.433Z,9.80
2019-05-03T02:44:58.654Z,9.72
2019-05-03T02:50:05.844Z,9.78
2019-05-03T02:55:09.158Z,9.91
2019-05-03T03:00:12.685Z,9.83
2019-05-03T03:05:16.669Z,9.58
2019-05-03T03:10:18.465Z,9.84
2019-05-03T03:15:21.993Z,9.80
2019-05-03T03:20:25.547Z,9.64
2019-05-03T03:25:35.984Z,9.64
2019-05-03T03:31:27.804Z,9.45
2019-05-03T03:36:46.062Z,9.33
2019-05-03T03:41:35.235Z,9.38
2019-05-03T03:46:39.110Z,9.38
2019-05-03T03:51:45.404Z,9.55
2019-05-03T03:57:02.924Z,9.75
2019-05-03T04:02:00.752Z,9.75
2019-05-03T04:07:02.953Z,9.64
2019-05-03T04:12:06.023Z,9.78
2019-05-03T04:17:19.051Z,9.74
2019-05-03T04:22:21.063Z,9.71
2019-05-03T04:27:27.009Z,9.32
2019-05-03T04:32:28.948Z,9.19
2019-05-03T04:37:31.007Z,9.13
2019-05-03T04:42:35.696Z,9.36
2019-05-03T04:47:37.138Z,9.41
2019-05-03T04:52:38.984Z,9.58
2019-05-03T04:57:46.848Z,9.52
2019-05-03T05:02:46.295Z,9.72
2019-05-03T05:07:50.534Z,9.75
2019-05-03T05:12:54.969Z,9.57
2019-05-03T05:18:08.160Z,9.77
2019-05-03T05:23:10.073Z,9.90
2019-05-03T05:28:21.123Z,10.12
2019-05-03T05:33:25.038Z,10.19
2019-05-03T05:38:27.033Z,10.01
2019-05-03T05:43:28.833Z,10.23
2019-05-03T05:48:36.359Z,10.35
2019-05-03T05:53:38.180Z,10.99
2019-05-03T05:58:47.306Z,11.00
2019-05-03T06:03:49.224Z,10.64
2019-05-03T06:09:07.210Z,10.36
2019-05-03T06:14:15.195Z,10.63
2019-05-03T06:19:39.418Z,11.18
2019-05-03T06:24:50.249Z,11.38
2019-05-03T06:29:56.625Z,10.82
2019-05-03T06:34:58.523Z,10.95
2019-05-03T06:40:00.513Z,11.17
2019-05-03T06:45:09.609Z,11.08
2019-05-03T06:50:06.977Z,11.34
2019-05-03T06:55:10.750Z,11.90
2019-05-03T07:00:34.942Z,12.64
2019-05-03T07:05:54.882Z,13.20
2019-05-03T07:10:58.618Z,12.42
2019-05-03T07:16:06.275Z,13.20
2019-05-03T07:21:08.181Z,10.84
2019-05-03T07:26:10.263Z,13.08
2019-05-03T07:31:12.094Z,14.85
2019-05-03T07:36:15.215Z,13.25
2019-05-03T07:41:17.670Z,12.75
2019-05-03T07:46:24.576Z,12.34
2019-05-03T07:51:26.237Z,11.87
2019-05-03T07:56:32.040Z,12.38
2019-05-03T08:01:42.140Z,13.46
2019-05-03T08:06:46.965Z,14.01
2019-05-03T08:11:48.878Z,12.44
2019-05-03T08:16:50.992Z,11.96
2019-05-03T08:21:52.972Z,11.89
2019-05-03T08:26:55.727Z,12.04
2019-05-03T08:32:28.250Z,12.94
2019-05-03T08:37:45.241Z,13.91
2019-05-03T08:42:49.748Z,13.62
2019-05-03T08:47:51.662Z,13.02
2019-05-03T08:52:55.681Z,12.18
2019-05-03T08:57:57.401Z,12.34
2019-05-03T09:02:59.298Z,12.02
2019-05-03T09:08:01.486Z,12.07
2019-05-03T09:13:06.408Z,13.42
2019-05-03T09:18:08.549Z,12.66
2019-05-03T09:23:14.723Z,13.04
2019-05-03T09:28:16.777Z,14.42
2019-05-03T09:33:19.189Z,13.76
2019-05-03T09:38:22.568Z,12.99
2019-05-03T09:43:25.115Z,13.42
2019-05-03T09:48:27.094Z,14.42
2019-05-03T09:53:32.309Z,14.62
2019-05-03T09:58:36.399Z,15.22
2019-05-03T10:03:38.175Z,14.67
2019-05-03T10:08:42.362Z,13.38
2019-05-03T10:13:48.468Z,13.54
2019-05-03T10:18:48.100Z,13.62
2019-05-03T10:23:51.472Z,14.83
2019-05-03T10:28:55.056Z,15.49
2019-05-03T10:34:00.920Z,15.75
2019-05-03T10:39:06.032Z,15.60
2019-05-03T10:44:08.147Z,16.08
2019-05-03T10:49:10.244Z,15.11
2019-05-03T10:54:14.782Z,14.93
2019-05-03T10:59:19.824Z,15.52
2019-05-03T11:04:22.069Z,15.52
2019-05-03T11:09:25.860Z,15.79
2019-05-03T11:14:28.308Z,15.41
2019-05-03T11:19:30.248Z,15.85
2019-05-03T11:24:34.658Z,14.77
2019-05-03T11:29:36.112Z,14.57
2019-05-03T11:34:45.103Z,14.92
2019-05-03T11:39:49.120Z,15.00
2019-05-03T11:44:51.160Z,14.96
2019-05-03T11:49:54.654Z,14.59
2019-05-03T11:54:57.882Z,14.48
2019-05-03T11:59:59.898Z,14.98
2019-05-03T12:05:04.978Z,15.02
2019-05-03T12:10:16.888Z,14.10
2019-05-03T12:15:12.573Z,14.76
2019-05-03T12:20:17.884Z,14.77
2019-05-03T12:25:19.501Z,14.86
2019-05-03T12:30:24.935Z,13.90
2019-05-03T12:35:26.066Z,14.67
2019-05-03T12:40:28.258Z,15.34
2019-05-03T12:45:31.267Z,15.39
2019-05-03T12:50:34.628Z,13.46
2019-05-03T12:55:37.027Z,14.24
2019-05-03T13:01:10.523Z,14.51
2019-05-03T13:06:14.825Z,14.42
2019-05-03T13:11:16.431Z,13.75
2019-05-03T13:16:20.254Z,13.80
2019-05-03T13:21:22.200Z,13.91
2019-05-03T13:26:25.398Z,13.56
2019-05-03T13:31:27.396Z,14.14
2019-05-03T13:36:29.481Z,13.95
2019-05-03T13:41:31.527Z,14.39
2019-05-03T13:46:35.290Z,14.12
2019-05-03T13:51:37.182Z,14.19
2019-05-03T13:56:39.166Z,14.55
2019-05-03T14:01:41.064Z,14.38
2019-05-03T14:06:44.683Z,14.15
2019-05-03T14:11:46.860Z,14.24
2019-05-03T14:16:51.449Z,14.86
2019-05-03T14:21:55.096Z,14.00
2019-05-03T14:26:57.017Z,13.15
2019-05-03T14:31:58.918Z,14.19
2019-05-03T14:37:01.116Z,13.19
2019-05-03T14:42:04.814Z,12.65
2019-05-03T14:47:07.056Z,12.66
2019-05-03T14:52:08.958Z,12.71
2019-05-03T14:57:25.835Z,12.44
2019-05-03T15:02:43.433Z,12.77
2019-05-03T15:07:41.253Z,13.20
2019-05-03T15:12:45.198Z,12.30
2019-05-03T15:17:47.001Z,12.96
2019-05-03T15:22:48.943Z,12.85
2019-05-03T15:27:51.128Z,12.89
2019-05-03T15:32:59.801Z,12.61
2019-05-03T15:37:57.673Z,12.10
2019-05-03T15:43:16.177Z,12.84
2019-05-03T15:48:24.660Z,12.60
2019-05-03T15:53:26.630Z,12.89
2019-05-03T15:58:31.747Z,12.76
2019-05-03T16:03:35.595Z,12.98
2019-05-03T16:08:39.121Z,12.67
2019-05-03T16:13:41.050Z,12.32
2019-05-03T16:18:44.855Z,12.75
2019-05-03T16:23:47.071Z,12.56
2019-05-03T16:29:08.788Z,12.27
2019-05-03T16:34:11.139Z,12.68
2019-05-03T16:39:17.872Z,12.43
2019-05-03T16:44:20.066Z,12.06
2019-05-03T16:49:24.672Z,12.29
2019-05-03T16:54:28.023Z,11.66
2019-05-03T16:59:31.383Z,11.85
2019-05-03T17:04:45.979Z,11.53
2019-05-03T17:10:04.916Z,11.32
2019-05-03T17:15:06.985Z,11.48
2019-05-03T17:20:09.089Z,11.87
2019-05-03T17:25:15.441Z,11.49
2019-05-03T17:30:17.514Z,11.37
2019-05-03T17:35:20.086Z,11.58
2019-05-03T17:40:50.021Z,11.31
2019-05-03T17:45:54.988Z,11.08
2019-05-03T17:50:58.966Z,11.08
2019-05-03T17:56:18.758Z,10.56
2019-05-03T18:01:38.978Z,10.79
2019-05-03T18:06:48.966Z,10.46
2019-05-03T18:11:55.813Z,10.77
2019-05-03T18:16:58.150Z,11.62
2019-05-03T18:22:00.240Z,11.36
2019-05-03T18:27:04.208Z,11.33
2019-05-03T18:32:08.759Z,11.13
2019-05-03T18:37:10.898Z,10.94
2019-05-03T18:42:18.067Z,11.26
2019-05-03T18:47:25.188Z,11.26
2019-05-03T18:52:27.195Z,10.75
2019-05-03T18:57:29.193Z,10.58
2019-05-03T19:02:31.154Z,10.38
2019-05-03T19:07:51.333Z,9.97
2019-05-03T19:12:57.188Z,10.66
2019-05-03T19:18:21.656Z,10.58
2019-05-03T19:23:31.038Z,11.62
2019-05-03T19:28:40.424Z,11.62
2019-05-03T19:33:42.355Z,11.01
2019-05-03T19:38:45.271Z,10.98
2019-05-03T19:43:48.454Z,10.63
2019-05-03T19:48:50.390Z,11.27
2019-05-03T19:53:55.087Z,11.05
2019-05-03T19:59:01.966Z,10.41
2019-05-03T20:04:32.497Z,10.13
2019-05-03T20:09:35.721Z,10.56
2019-05-03T20:14:42.154Z,10.94
2019-05-03T20:19:45.180Z,10.57
2019-05-03T20:24:49.167Z,10.35
2019-05-03T20:29:51.167Z,10.15
2019-05-03T20:34:55.010Z,14.64
2019-05-03T20:39:56.944Z,11.55
2019-05-03T20:44:59.468Z,11.43
2019-05-03T20:50:15.478Z,11.11
2019-05-03T20:55:19.074Z,10.97
2019-05-03T21:00:25.428Z,10.52
2019-05-03T21:05:31.722Z,10.73
2019-05-03T21:10:31.172Z,12.58
2019-05-03T21:15:55.391Z,11.74
2019-05-03T21:21:03.748Z,9.21
2019-05-03T21:26:13.078Z,10.50
2019-05-03T21:31:12.636Z,15.99
2019-05-03T21:36:15.118Z,10.84
2019-05-03T21:41:17.735Z,10.55
2019-05-03T21:46:36.122Z,10.33
2019-05-03T21:51:41.084Z,10.49
2019-05-03T21:56:44.729Z,11.27
2019-05-03T22:01:48.385Z,10.85
2019-05-03T22:06:50.461Z,11.72
2019-05-03T22:11:52.483Z,10.51
2019-05-03T22:17:16.885Z,10.25
2019-05-03T22:22:37.450Z,10.11
2019-05-03T22:27:41.081Z,9.92
2019-05-03T22:32:44.516Z,9.94
2019-05-03T22:37:47.797Z,9.82
2019-05-03T22:42:49.694Z,9.90
2019-05-03T22:47:51.796Z,9.87
2019-05-03T22:52:57.796Z,9.74
2019-05-03T22:57:59.636Z,9.62
2019-05-03T23:03:01.540Z,9.70
2019-05-03T23:08:05.347Z,9.61
2019-05-03T23:13:08.512Z,9.61
2019-05-03T23:18:10.429Z,9.76
2019-05-03T23:23:31.918Z,9.62
2019-05-03T23:28:36.389Z,9.55
2019-05-03T23:33:38.196Z,9.61
2019-05-03T23:38:40.151Z,9.86
2019-05-03T23:43:45.150Z,12.99
2019-05-03T23:48:48.427Z,8.67
2019-05-03T23:53:50.454Z,14.69
2019-05-03T23:58:52.275Z,10.46
